createdAt,value
2022-12-25T00:02:30.755Z,6.73
2022-12-25T00:05:03.514Z,6.80
2022-12-25T00:07:36.035Z,6.81
2022-12-25T00:10:10.619Z,6.79
2022-12-25T00:12:43.388Z,6.78
2022-12-25T00:15:16.046Z,6.84
2022-12-25T00:17:48.542Z,6.92
2022-12-25T00:20:21.235Z,6.98
2022-12-25T00:22:54.024Z,7.02
2022-12-25T00:25:26.505Z,7.07
2022-12-25T00:27:59.021Z,7.12
2022-12-25T00:30:31.589Z,7.04
2022-12-25T00:33:04.072Z,6.96
2022-12-25T00:35:39.478Z,6.88
2022-12-25T00:38:12.540Z,6.79
2022-12-25T00:40:47.889Z,6.70
2022-12-25T00:43:20.558Z,6.61
2022-12-25T00:46:01.193Z,6.52
2022-12-25T00:48:34.574Z,6.41
2022-12-25T00:51:09.466Z,6.31
2022-12-25T00:53:41.986Z,6.24
2022-12-25T00:56:14.500Z,6.21
2022-12-25T00:58:48.307Z,6.16
2022-12-25T01:01:20.962Z,6.06
2022-12-25T01:03:53.625Z,5.94
2022-12-25T01:06:26.179Z,5.84
2022-12-25T01:09:17.529Z,5.76
2022-12-25T01:11:53.276Z,5.71
2022-12-25T01:14:25.927Z,5.64
2022-12-25T01:16:58.705Z,5.58
2022-12-25T01:19:31.524Z,5.52
2022-12-25T01:22:05.126Z,5.47
2022-12-25T01:24:37.952Z,5.40
2022-12-25T01:27:10.509Z,5.32
2022-12-25T01:29:43.128Z,5.25
2022-12-25T01:32:16.113Z,5.22
2022-12-25T01:34:55.633Z,5.16
2022-12-25T01:37:29.038Z,5.08
2022-12-25T01:40:01.755Z,5.04
2022-12-25T01:42:34.458Z,5.02
2022-12-25T01:45:42.543Z,5.02
2022-12-25T01:48:18.054Z,5.02
2022-12-25T01:50:53.504Z,5.01
2022-12-25T01:53:27.218Z,4.99
2022-12-25T01:56:04.057Z,4.97
2022-12-25T01:58:37.223Z,4.93
2022-12-25T02:01:12.610Z,4.87
2022-12-25T02:03:46.020Z,4.81
2022-12-25T02:06:18.776Z,4.73
2022-12-25T02:08:53.139Z,4.66
2022-12-25T02:11:39.856Z,4.61
2022-12-25T02:14:13.491Z,4.58
2022-12-25T02:16:58.347Z,4.58
2022-12-25T02:20:04.325Z,4.60
2022-12-25T02:22:50.022Z,4.64
2022-12-25T02:25:37.949Z,4.70
2022-12-25T02:28:18.295Z,4.77
2022-12-25T02:30:58.138Z,4.84
2022-12-25T02:33:54.014Z,4.91
2022-12-25T02:36:32.732Z,4.96
2022-12-25T02:39:29.407Z,4.98
2022-12-25T02:42:07.494Z,4.97
2022-12-25T02:45:02.586Z,4.93
2022-12-25T02:48:00.250Z,4.88
2022-12-25T02:50:50.117Z,4.84
2022-12-25T02:53:40.619Z,4.81
2022-12-25T02:56:31.828Z,4.74
2022-12-25T02:59:23.261Z,4.67
2022-12-25T03:02:14.208Z,4.55
2022-12-25T03:05:05.568Z,4.46
2022-12-25T03:07:43.718Z,4.40
2022-12-25T03:10:36.201Z,4.38
2022-12-25T03:13:15.270Z,4.35
2022-12-25T03:16:06.161Z,4.33
2022-12-25T03:18:40.677Z,4.33
2022-12-25T03:21:30.969Z,4.33
2022-12-25T03:24:18.249Z,4.36
2022-12-25T03:26:57.565Z,4.38
2022-12-25T03:29:51.572Z,4.42
2022-12-25T03:32:36.975Z,4.44
2022-12-25T03:35:25.524Z,4.48
2022-12-25T03:38:32.709Z,4.51
2022-12-25T03:41:50.901Z,4.55
2022-12-25T03:44:51.661Z,4.62
2022-12-25T03:47:47.763Z,4.69
2022-12-25T03:50:42.528Z,4.76
2022-12-25T03:53:39.076Z,4.81
2022-12-25T03:56:31.387Z,4.86
2022-12-25T03:59:24.066Z,4.93
2022-12-25T04:02:16.958Z,4.99
2022-12-25T04:05:07.475Z,5.09
2022-12-25T04:07:57.679Z,5.15
2022-12-25T04:10:47.811Z,5.21
2022-12-25T04:13:37.849Z,5.28
2022-12-25T04:16:28.448Z,5.34
2022-12-25T04:19:18.772Z,5.40
2022-12-25T04:22:08.511Z,5.42
2022-12-25T04:24:58.936Z,5.47
2022-12-25T04:27:49.651Z,5.52
2022-12-25T04:30:39.586Z,5.52
2022-12-25T04:33:30.024Z,5.51
2022-12-25T04:36:11.825Z,5.46
2022-12-25T04:38:45.012Z,5.43
2022-12-25T04:41:18.303Z,5.44
2022-12-25T04:43:50.940Z,5.44
2022-12-25T04:46:23.645Z,5.44
2022-12-25T04:48:56.509Z,5.45
2022-12-25T04:51:29.412Z,5.47
2022-12-25T04:54:02.840Z,5.50
2022-12-25T04:56:41.580Z,5.53
2022-12-25T04:59:16.317Z,5.55
2022-12-25T05:01:49.270Z,5.55
2022-12-25T05:04:21.971Z,5.56
2022-12-25T05:06:54.875Z,5.57
2022-12-25T05:09:28.344Z,5.58
2022-12-25T05:12:00.980Z,5.60
2022-12-25T05:14:33.893Z,5.62
2022-12-25T05:17:07.984Z,5.63
2022-12-25T05:19:40.488Z,5.64
2022-12-25T05:22:13.144Z,5.63
2022-12-25T05:24:45.933Z,5.58
2022-12-25T05:27:19.000Z,5.53
2022-12-25T05:29:51.809Z,5.51
2022-12-25T05:32:25.269Z,5.49
2022-12-25T05:35:00.616Z,5.46
2022-12-25T05:37:33.137Z,5.48
2022-12-25T05:40:09.935Z,5.50
2022-12-25T05:42:42.967Z,5.53
2022-12-25T05:45:15.853Z,5.54
2022-12-25T05:47:48.650Z,5.55
2022-12-25T05:50:21.500Z,5.56
2022-12-25T05:52:54.146Z,5.57
2022-12-25T05:55:26.897Z,5.60
2022-12-25T05:58:00.407Z,5.65
2022-12-25T06:00:33.247Z,5.70
2022-12-25T06:03:06.222Z,5.74
2022-12-25T06:05:40.792Z,5.76
2022-12-25T06:08:13.415Z,5.76
2022-12-25T06:10:46.288Z,5.76
2022-12-25T06:13:18.813Z,5.75
2022-12-25T06:15:51.575Z,5.74
2022-12-25T06:18:24.481Z,5.73
2022-12-25T06:20:57.094Z,5.74
2022-12-25T06:23:29.949Z,5.75
2022-12-25T06:26:03.937Z,5.76
2022-12-25T06:28:36.877Z,5.77
2022-12-25T06:31:14.552Z,5.78
2022-12-25T06:33:48.317Z,5.78
2022-12-25T06:36:24.034Z,5.77
2022-12-25T06:38:57.391Z,5.77
2022-12-25T06:41:31.435Z,5.80
2022-12-25T06:44:05.220Z,5.83
2022-12-25T06:46:37.980Z,5.83
2022-12-25T06:49:11.233Z,5.83
2022-12-25T06:51:44.090Z,5.83
2022-12-25T06:54:17.040Z,5.89
2022-12-25T06:56:51.177Z,5.96
2022-12-25T06:59:23.899Z,6.00
2022-12-25T07:01:58.925Z,6.02
2022-12-25T07:04:35.693Z,6.02
2022-12-25T07:07:10.300Z,6.04
2022-12-25T07:09:43.795Z,6.05
2022-12-25T07:12:20.989Z,6.08
2022-12-25T07:14:55.214Z,6.08
2022-12-25T07:17:27.868Z,6.09
2022-12-25T07:20:01.345Z,6.09
2022-12-25T07:22:34.049Z,6.08
2022-12-25T07:25:07.507Z,6.08
2022-12-25T07:27:41.263Z,6.07
2022-12-25T07:30:15.622Z,6.11
2022-12-25T07:32:51.001Z,6.17
2022-12-25T07:35:23.633Z,6.25
2022-12-25T07:37:56.561Z,6.31
2022-12-25T07:40:29.344Z,6.39
2022-12-25T07:43:02.085Z,6.46
2022-12-25T07:45:35.442Z,6.46
2022-12-25T07:48:11.990Z,6.47
2022-12-25T07:50:49.023Z,6.47
2022-12-25T07:53:21.764Z,6.42
2022-12-25T07:56:02.119Z,6.41
2022-12-25T07:58:35.315Z,6.39
2022-12-25T08:01:11.830Z,6.40
2022-12-25T08:03:44.672Z,6.42
2022-12-25T08:06:17.442Z,6.42
2022-12-25T08:08:51.167Z,6.40
2022-12-25T08:11:23.684Z,6.43
2022-12-25T08:13:56.436Z,6.49
2022-12-25T08:16:29.154Z,6.54
2022-12-25T08:19:01.986Z,6.59
2022-12-25T08:21:35.572Z,6.67
2022-12-25T08:24:08.766Z,6.75
2022-12-25T08:26:41.429Z,6.78
2022-12-25T08:29:14.046Z,6.80
2022-12-25T08:31:47.382Z,6.83
2022-12-25T08:34:20.669Z,6.88
2022-12-25T08:36:53.389Z,6.93
2022-12-25T08:39:26.354Z,6.99
2022-12-25T08:42:00.004Z,7.02
2022-12-25T08:44:34.391Z,7.05
2022-12-25T08:47:07.257Z,7.13
2022-12-25T08:49:39.946Z,7.16
2022-12-25T08:52:13.779Z,7.24
2022-12-25T08:54:47.475Z,7.31
2022-12-25T08:57:21.007Z,7.33
2022-12-25T08:59:53.605Z,7.35
2022-12-25T09:02:26.585Z,7.39
2022-12-25T09:04:59.726Z,7.39
2022-12-25T09:07:32.615Z,7.40
2022-12-25T09:10:06.151Z,7.42
2022-12-25T09:12:40.668Z,7.44
2022-12-25T09:15:14.093Z,7.42
2022-12-25T09:17:46.796Z,7.41
2022-12-25T09:20:19.953Z,7.37
2022-12-25T09:22:53.776Z,7.34
2022-12-25T09:25:26.421Z,7.34
2022-12-25T09:27:59.900Z,7.38
2022-12-25T09:30:32.816Z,7.44
2022-12-25T09:33:05.516Z,7.52
2022-12-25T09:35:39.860Z,7.63
2022-12-25T09:38:12.509Z,7.69
2022-12-25T09:40:45.204Z,7.75
2022-12-25T09:43:22.526Z,7.79
2022-12-25T09:45:55.975Z,7.92
2022-12-25T09:48:32.420Z,8.04
2022-12-25T09:51:10.723Z,8.07
2022-12-25T09:53:47.488Z,8.12
2022-12-25T09:56:25.702Z,8.14
2022-12-25T09:59:00.646Z,8.14
2022-12-25T10:01:42.768Z,8.14
2022-12-25T10:04:41.614Z,8.11
2022-12-25T10:07:20.080Z,8.10
2022-12-25T10:10:04.764Z,8.09
2022-12-25T10:12:50.642Z,8.03
2022-12-25T10:15:45.264Z,7.98
2022-12-25T10:18:45.814Z,7.94
2022-12-25T10:21:20.690Z,7.90
2022-12-25T10:24:01.481Z,7.86
2022-12-25T10:26:36.630Z,7.81
2022-12-25T10:29:16.622Z,7.79
2022-12-25T10:31:54.974Z,7.78
2022-12-25T10:34:29.076Z,7.82
2022-12-25T10:37:02.534Z,7.82
2022-12-25T10:39:36.735Z,7.85
2022-12-25T10:42:30.470Z,7.94
2022-12-25T10:45:05.710Z,7.95
2022-12-25T10:47:42.692Z,7.90
2022-12-25T10:50:24.328Z,7.87
2022-12-25T10:53:05.110Z,7.88
2022-12-25T10:55:38.119Z,7.95
2022-12-25T10:58:19.921Z,7.98
2022-12-25T11:00:58.356Z,8.07
2022-12-25T11:03:33.349Z,8.17
2022-12-25T11:06:07.884Z,8.25
2022-12-25T11:08:40.542Z,8.28
2022-12-25T11:11:23.244Z,8.27
2022-12-25T11:13:58.801Z,8.25
2022-12-25T11:16:34.318Z,8.24
2022-12-25T11:19:23.154Z,8.25
2022-12-25T11:21:58.136Z,8.18
2022-12-25T11:24:32.426Z,8.08
2022-12-25T11:27:10.196Z,8.02
2022-12-25T11:29:47.931Z,8.00
2022-12-25T11:32:26.581Z,7.96
2022-12-25T11:35:00.248Z,7.90
2022-12-25T11:37:39.727Z,7.92
2022-12-25T11:40:19.603Z,7.96
2022-12-25T11:42:58.269Z,8.01
2022-12-25T11:45:39.579Z,8.11
2022-12-25T11:48:19.359Z,8.10
2022-12-25T11:50:56.280Z,8.16
2022-12-25T11:53:36.177Z,8.26
2022-12-25T11:56:12.890Z,8.35
2022-12-25T11:58:49.628Z,8.40
2022-12-25T12:01:29.806Z,8.38
2022-12-25T12:04:04.576Z,8.38
2022-12-25T12:06:46.935Z,8.35
2022-12-25T12:09:31.254Z,8.31
2022-12-25T12:12:09.978Z,8.23
2022-12-25T12:14:57.016Z,8.10
2022-12-25T12:17:32.339Z,7.96
2022-12-25T12:20:28.781Z,7.88
2022-12-25T12:23:03.669Z,7.91
2022-12-25T12:25:42.870Z,7.96
2022-12-25T12:28:24.392Z,8.06
2022-12-25T12:31:06.599Z,8.18
2022-12-25T12:33:42.942Z,8.23
2022-12-25T12:36:17.323Z,8.25
2022-12-25T12:38:51.072Z,8.23
2022-12-25T12:41:27.361Z,8.20
2022-12-25T12:44:04.070Z,8.21
2022-12-25T12:46:40.113Z,8.16
2022-12-25T12:49:21.733Z,8.08
2022-12-25T12:52:06.411Z,8.01
2022-12-25T12:54:58.039Z,7.97
2022-12-25T12:57:32.927Z,8.01
2022-12-25T13:00:10.878Z,8.08
2022-12-25T13:03:07.198Z,8.16
2022-12-25T13:05:46.202Z,8.26
2022-12-25T13:08:34.777Z,8.31
2022-12-25T13:11:21.187Z,8.32
2022-12-25T13:13:56.168Z,8.33
2022-12-25T13:16:32.227Z,8.36
2022-12-25T13:19:09.992Z,8.39
2022-12-25T13:21:52.675Z,8.48
2022-12-25T13:24:27.412Z,8.56
2022-12-25T13:27:01.297Z,8.62
2022-12-25T13:29:35.772Z,8.65
2022-12-25T13:32:16.676Z,8.66
2022-12-25T13:34:51.064Z,8.61
2022-12-25T13:37:26.373Z,8.50
2022-12-25T13:40:01.663Z,8.36
2022-12-25T13:42:48.771Z,8.19
2022-12-25T13:45:27.960Z,8.03
2022-12-25T13:48:10.491Z,7.90
2022-12-25T13:50:48.498Z,7.83
2022-12-25T13:53:21.677Z,7.79
2022-12-25T13:55:57.571Z,7.77
2022-12-25T13:58:34.894Z,7.79
2022-12-25T14:01:08.055Z,7.85
2022-12-25T14:03:45.632Z,7.89
2022-12-25T14:06:26.148Z,7.91
2022-12-25T14:09:00.011Z,7.88
2022-12-25T14:11:34.181Z,7.84
2022-12-25T14:14:16.150Z,7.76
2022-12-25T14:16:50.690Z,7.67
2022-12-25T14:19:31.975Z,7.57
2022-12-25T14:22:11.344Z,7.46
2022-12-25T14:24:43.907Z,7.38
2022-12-25T14:27:22.115Z,7.33
2022-12-25T14:29:54.304Z,7.30
2022-12-25T14:32:29.821Z,7.26
2022-12-25T14:35:04.051Z,7.19
2022-12-25T14:37:38.367Z,7.11
2022-12-25T14:40:25.768Z,7.02
2022-12-25T14:43:02.883Z,6.91
2022-12-25T14:45:38.579Z,6.79
2022-12-25T14:48:25.426Z,6.69
2022-12-25T14:51:03.550Z,6.57
2022-12-25T14:53:40.965Z,6.46
2022-12-25T14:56:20.086Z,6.35
2022-12-25T14:58:55.947Z,6.22
2022-12-25T15:01:33.525Z,6.06
2022-12-25T15:04:16.109Z,5.90
2022-12-25T15:06:59.457Z,5.74
2022-12-25T15:09:32.423Z,5.54
2022-12-25T15:12:05.413Z,5.36
2022-12-25T15:14:40.192Z,5.21
2022-12-25T15:17:24.520Z,5.07
2022-12-25T15:20:01.728Z,4.93
2022-12-25T15:22:53.944Z,4.81
2022-12-25T15:25:27.546Z,4.68
2022-12-25T15:28:01.887Z,4.55
2022-12-25T15:30:35.683Z,4.44
2022-12-25T15:33:08.707Z,4.29
2022-12-25T15:35:41.303Z,4.15
2022-12-25T15:38:14.380Z,4.03
2022-12-25T15:40:48.189Z,3.94
2022-12-25T15:43:39.990Z,3.85
2022-12-25T15:46:13.700Z,3.78
2022-12-25T15:48:46.296Z,3.70
2022-12-25T15:51:20.058Z,3.60
2022-12-25T15:53:52.783Z,3.51
2022-12-25T15:56:27.304Z,3.41
2022-12-25T15:58:59.814Z,3.31
2022-12-25T16:01:32.456Z,3.18
2022-12-25T16:04:06.127Z,3.10
2022-12-25T16:06:38.633Z,3.05
2022-12-25T16:09:12.799Z,3.01
2022-12-25T16:11:45.567Z,3.00
2022-12-25T16:14:19.663Z,2.98
2022-12-25T16:16:52.164Z,2.97
2022-12-25T16:19:25.020Z,2.96
2022-12-25T16:21:57.991Z,2.94
2022-12-25T16:24:30.493Z,2.90
2022-12-25T16:27:02.983Z,2.85
2022-12-25T16:29:35.553Z,2.80
2022-12-25T16:32:08.251Z,2.74
2022-12-25T16:34:40.860Z,2.67
2022-12-25T16:37:13.509Z,2.65
2022-12-25T16:39:46.390Z,2.66
2022-12-25T16:42:21.255Z,2.67
2022-12-25T16:44:54.282Z,2.69
2022-12-25T16:47:26.814Z,2.67
2022-12-25T16:49:59.674Z,2.64
2022-12-25T16:52:32.871Z,2.61
2022-12-25T16:55:07.781Z,2.59
2022-12-25T16:57:40.423Z,2.55
2022-12-25T17:00:15.028Z,2.53
2022-12-25T17:02:47.694Z,2.54
2022-12-25T17:05:20.500Z,2.56
2022-12-25T17:07:56.375Z,2.61
2022-12-25T17:10:28.931Z,2.67
2022-12-25T17:13:01.454Z,2.74
2022-12-25T17:15:34.066Z,2.76
2022-12-25T17:18:06.775Z,2.74
2022-12-25T17:20:39.604Z,2.72
2022-12-25T17:23:12.096Z,2.67
2022-12-25T17:25:44.570Z,2.62
2022-12-25T17:28:17.208Z,2.60
2022-12-25T17:30:49.800Z,2.58
2022-12-25T17:33:22.421Z,2.55
2022-12-25T17:36:00.048Z,2.53
2022-12-25T17:38:36.284Z,2.51
2022-12-25T17:41:11.747Z,2.43
2022-12-25T17:43:46.720Z,2.26
2022-12-25T17:46:21.475Z,2.09
2022-12-25T17:48:56.185Z,1.94
2022-12-25T17:51:30.574Z,1.79
2022-12-25T17:54:04.274Z,1.71
2022-12-25T17:56:37.019Z,1.69
2022-12-25T17:59:12.190Z,1.68
2022-12-25T18:01:44.713Z,1.68
2022-12-25T18:04:17.365Z,1.71
2022-12-25T18:06:50.171Z,1.73
2022-12-25T18:09:23.381Z,1.76
2022-12-25T18:11:56.248Z,1.78
2022-12-25T18:14:29.769Z,1.78
2022-12-25T18:17:02.341Z,1.77
2022-12-25T18:19:35.532Z,1.73
2022-12-25T18:22:08.091Z,1.67
2022-12-25T18:24:41.018Z,1.63
2022-12-25T18:27:14.257Z,1.64
2022-12-25T18:29:47.986Z,1.68
2022-12-25T18:32:26.306Z,1.75
2022-12-25T18:35:00.514Z,1.81
2022-12-25T18:37:39.463Z,1.85
2022-12-25T18:40:13.724Z,1.90
2022-12-25T18:42:46.709Z,1.95
2022-12-25T18:45:21.207Z,1.99
2022-12-25T18:47:53.666Z,2.00
2022-12-25T18:50:26.157Z,1.97
2022-12-25T18:52:58.754Z,1.92
2022-12-25T18:55:31.921Z,1.84
2022-12-25T18:58:04.915Z,1.76
2022-12-25T19:00:37.496Z,1.72
2022-12-25T19:03:10.085Z,1.68
2022-12-25T19:05:43.830Z,1.66
2022-12-25T19:08:16.370Z,1.66
2022-12-25T19:10:49.395Z,1.69
2022-12-25T19:13:22.444Z,1.67
2022-12-25T19:15:58.287Z,1.66
2022-12-25T19:18:31.081Z,1.62
2022-12-25T19:21:09.247Z,1.61
2022-12-25T19:23:41.923Z,1.61
2022-12-25T19:26:15.085Z,1.63
2022-12-25T19:28:47.801Z,1.67
2022-12-25T19:31:20.456Z,1.71
2022-12-25T19:33:54.459Z,1.79
2022-12-25T19:36:27.016Z,1.86
2022-12-25T19:38:59.842Z,1.90
2022-12-25T19:41:32.872Z,1.88
2022-12-25T19:44:05.936Z,1.80
2022-12-25T19:46:41.848Z,1.70
2022-12-25T19:49:15.800Z,1.59
2022-12-25T19:51:48.958Z,1.51
2022-12-25T19:54:21.514Z,1.45
2022-12-25T19:56:54.040Z,1.43
2022-12-25T19:59:28.304Z,1.41
2022-12-25T20:02:00.999Z,1.40
2022-12-25T20:04:33.617Z,1.43
2022-12-25T20:07:06.142Z,1.45
2022-12-25T20:09:38.654Z,1.47
2022-12-25T20:12:14.709Z,1.50
2022-12-25T20:14:47.375Z,1.52
2022-12-25T20:17:20.088Z,1.51
2022-12-25T20:19:52.624Z,1.48
2022-12-25T20:22:25.105Z,1.43
2022-12-25T20:24:58.485Z,1.40
2022-12-25T20:27:31.309Z,1.39
2022-12-25T20:30:04.277Z,1.42
2022-12-25T20:32:36.814Z,1.46
2022-12-25T20:35:15.749Z,1.52
2022-12-25T20:37:48.647Z,1.57
2022-12-25T20:40:21.341Z,1.58
2022-12-25T20:42:53.862Z,1.60
2022-12-25T20:45:26.338Z,1.60
2022-12-25T20:47:59.229Z,1.58
2022-12-25T20:50:32.111Z,1.58
2022-12-25T20:53:04.607Z,1.58
2022-12-25T20:55:37.222Z,1.58
2022-12-25T20:58:09.841Z,1.60
2022-12-25T21:00:43.771Z,1.65
2022-12-25T21:03:16.939Z,1.71
2022-12-25T21:05:55.840Z,1.72
2022-12-25T21:08:28.715Z,1.74
2022-12-25T21:11:02.896Z,1.78
2022-12-25T21:13:38.306Z,1.83
2022-12-25T21:16:13.354Z,1.87
2022-12-25T21:18:45.948Z,1.80
2022-12-25T21:21:18.946Z,1.69
2022-12-25T21:23:51.827Z,1.60
2022-12-25T21:26:27.103Z,1.55
2022-12-25T21:29:01.623Z,1.53
2022-12-25T21:31:55.677Z,1.51
2022-12-25T21:34:30.567Z,1.52
2022-12-25T21:37:03.089Z,1.58
2022-12-25T21:39:35.611Z,1.64
2022-12-25T21:42:08.260Z,1.68
2022-12-25T21:44:40.854Z,1.67
2022-12-25T21:47:13.426Z,1.63
2022-12-25T21:50:03.357Z,1.62
2022-12-25T21:52:36.458Z,1.65
2022-12-25T21:55:10.502Z,1.69
2022-12-25T21:57:43.376Z,1.74
2022-12-25T22:00:17.004Z,1.82
2022-12-25T22:02:51.179Z,1.87
2022-12-25T22:05:38.380Z,1.88
2022-12-25T22:08:10.996Z,1.89
2022-12-25T22:10:43.511Z,1.91
2022-12-25T22:13:33.277Z,1.89
2022-12-25T22:16:26.372Z,1.90
2022-12-25T22:19:17.693Z,1.89
2022-12-25T22:21:50.536Z,1.90
2022-12-25T22:24:23.600Z,1.91
2022-12-25T22:26:56.096Z,1.94
2022-12-25T22:29:30.925Z,1.95
2022-12-25T22:32:03.458Z,1.96
2022-12-25T22:34:39.011Z,1.98
2022-12-25T22:37:15.327Z,1.98
2022-12-25T22:39:48.042Z,1.95
2022-12-25T22:42:20.757Z,1.93
2022-12-25T22:44:53.299Z,1.95
2022-12-25T22:47:26.574Z,1.99
2022-12-25T22:50:00.781Z,2.04
2022-12-25T22:52:33.497Z,2.12
2022-12-25T22:55:08.311Z,2.20
2022-12-25T22:57:40.791Z,2.27
2022-12-25T23:00:16.678Z,2.35
2022-12-25T23:02:49.343Z,2.42
2022-12-25T23:05:22.277Z,2.45
2022-12-25T23:07:54.774Z,2.47
2022-12-25T23:10:28.040Z,2.50
2022-12-25T23:13:17.750Z,2.52
2022-12-25T23:15:51.172Z,2.54
2022-12-25T23:18:40.944Z,2.61
2022-12-25T23:21:33.508Z,2.67
2022-12-25T23:24:38.195Z,2.73
2022-12-25T23:27:10.928Z,2.80
2022-12-25T23:29:43.452Z,2.83
2022-12-25T23:32:22.493Z,2.85
2022-12-25T23:34:55.878Z,2.79
2022-12-25T23:37:28.407Z,2.72
2022-12-25T23:40:03.799Z,2.67
2022-12-25T23:42:36.310Z,2.69
2022-12-25T23:45:10.661Z,2.73
2022-12-25T23:47:43.142Z,2.83
2022-12-25T23:50:15.795Z,2.96
2022-12-25T23:52:48.343Z,3.12
2022-12-25T23:55:20.950Z,3.30
2022-12-25T23:57:53.539Z,3.46
